Time;durP1;ratioP1;P1;durP2;ratioP2;P2;SDS_P1;SDS_P2;PMS_P1;PMS_P2;Temp;Humidity;BMP_temperature;BMP_pressure;BME280_temperature;BME280_humidity;BME280_pressure;Samples;Min_cycle;Max_cycle;Signal;HPM_P1;HPM_P2
2022/03/24 00:00:06;;;;;;;44.08;22.63;;;3.80;78.50;;;;;;5073738;28;20040;-89
2022/03/24 00:02:32;;;;;;;45.55;21.75;;;3.80;78.70;;;;;;5073236;28;20031;-89
2022/03/24 00:04:59;;;;;;;45.45;23.30;;;3.70;79.20;;;;;;5072975;28;20115;-89
2022/03/24 00:07:25;;;;;;;44.95;23.60;;;3.70;78.90;;;;;;5073670;28;20027;-89
2022/03/24 00:09:50;;;;;;;41.45;22.20;;;3.70;78.90;;;;;;5073504;28;20020;-89
2022/03/24 00:12:18;;;;;;;49.08;23.15;;;3.60;78.80;;;;;;5073153;28;20107;-89
2022/03/24 00:14:45;;;;;;;58.35;26.05;;;3.60;79.10;;;;;;5073089;28;20024;-89
2022/03/24 00:17:10;;;;;;;61.28;30.67;;;3.60;78.90;;;;;;5073553;28;20051;-89
2022/03/24 00:19:37;;;;;;;73.95;37.15;;;3.60;79.40;;;;;;5073155;28;20032;-89
2022/03/24 00:22:03;;;;;;;57.60;32.40;;;3.50;79.30;;;;;;5072928;28;20379;-89
2022/03/24 00:24:29;;;;;;;59.00;32.38;;;3.50;79.70;;;;;;5072678;28;20379;-89
2022/03/24 00:26:55;;;;;;;55.10;33.00;;;3.40;79.30;;;;;;5072766;28;20024;-89
2022/03/24 00:29:21;;;;;;;38.25;22.63;;;3.40;78.80;;;;;;5073271;28;20032;-89
2022/03/24 00:31:46;;;;;;;36.08;20.00;;;3.40;79.30;;;;;;5074121;28;20060;-89
2022/03/24 00:34:12;;;;;;;40.85;21.50;;;3.40;79.30;;;;;;5072542;28;20016;-89
2022/03/24 00:36:38;;;;;;;36.60;19.98;;;3.40;79.60;;;;;;5073182;28;20471;-89
2022/03/24 00:39:04;;;;;;;33.55;16.40;;;3.40;79.40;;;;;;5073043;28;20107;-89
2022/03/24 00:41:30;;;;;;;24.77;14.57;;;3.30;79.10;;;;;;5073406;28;20154;-89
2022/03/24 00:43:56;;;;;;;30.02;14.38;;;3.40;79.50;;;;;;5072575;28;20033;-89
2022/03/24 00:46:22;;;;;;;25.52;13.07;;;3.30;79.10;;;;;;5073994;28;20467;-89
2022/03/24 00:48:53;;;;;;;23.92;13.30;;;3.30;80.10;;;;;;5072966;28;20115;-89
2022/03/24 00:51:20;;;;;;;23.80;13.55;;;3.30;79.70;;;;;;5073075;28;20028;-89
2022/03/24 00:53:47;;;;;;;24.25;12.75;;;3.20;79.10;;;;;;5072594;28;20035;-88
2022/03/24 00:56:13;;;;;;;25.25;13.50;;;3.20;78.90;;;;;;5073095;28;20021;-89
2022/03/24 00:58:38;;;;;;;20.92;12.18;;;3.20;78.10;;;;;;5072853;28;20021;-89
2022/03/24 01:01:06;;;;;;;26.70;12.95;;;3.30;78.10;;;;;;5073149;28;20085;-89
2022/03/24 01:03:36;;;;;;;21.55;12.30;;;3.30;77.80;;;;;;5073175;28;20032;-89
2022/03/24 01:06:03;;;;;;;39.72;19.30;;;3.30;78.20;;;;;;5056922;28;20033;-89
2022/03/24 01:08:30;;;;;;;80.25;36.10;;;3.30;77.80;;;;;;5072795;28;20029;-89
2022/03/24 01:10:57;;;;;;;64.93;33.67;;;3.30;77.50;;;;;;5072676;28;20119;-89
2022/03/24 01:13:23;;;;;;;43.63;24.95;;;3.40;77.40;;;;;;5072724;28;20111;-88
2022/03/24 01:15:49;;;;;;;27.65;16.33;;;3.40;77.30;;;;;;5072385;28;20044;-89
2022/03/24 01:18:16;;;;;;;32.17;19.75;;;3.40;77.20;;;;;;5072649;28;20024;-89
2022/03/24 01:20:42;;;;;;;26.75;15.45;;;3.40;77.50;;;;;;5072593;28;20091;-89
2022/03/24 01:23:08;;;;;;;28.25;15.55;;;3.40;77.10;;;;;;5072717;28;20024;-89
2022/03/24 01:25:34;;;;;;;25.38;13.18;;;3.40;76.90;;;;;;5055980;28;20063;-89
2022/03/24 01:28:00;;;;;;;23.20;12.88;;;3.40;77.00;;;;;;5072804;28;20021;-89
2022/03/24 01:30:27;;;;;;;29.20;13.63;;;3.50;76.40;;;;;;5072623;28;20029;-89
2022/03/24 01:32:53;;;;;;;23.25;13.02;;;3.50;76.60;;;;;;5071873;28;20036;-89
2022/03/24 01:35:19;;;;;;;25.88;13.82;;;3.40;76.50;;;;;;5055842;28;20040;-89
2022/03/24 01:37:45;;;;;;;25.90;13.90;;;3.40;76.60;;;;;;5072246;28;20024;-89
2022/03/24 01:40:12;;;;;;;27.55;12.93;;;3.40;76.50;;;;;;5073082;28;20383;-89
2022/03/24 01:42:39;;;;;;;26.55;13.73;;;3.40;76.90;;;;;;5072253;28;20033;-89
2022/03/24 01:45:06;;;;;;;27.38;13.77;;;3.40;76.80;;;;;;5072813;28;20035;-89
2022/03/24 01:47:35;;;;;;;29.08;13.98;;;3.30;76.70;;;;;;5075167;28;20403;-89
2022/03/24 01:50:04;;;;;;;24.23;12.82;;;3.30;77.00;;;;;;5076376;28;20028;-89
2022/03/24 01:52:30;;;;;;;23.30;14.10;;;3.30;77.00;;;;;;5076072;28;20031;-89
2022/03/24 01:54:58;;;;;;;28.30;15.43;;;3.30;76.80;;;;;;5076029;28;20032;-89
2022/03/24 01:57:25;;;;;;;68.32;28.30;;;3.20;76.70;;;;;;5075674;28;20017;-89
2022/03/24 01:59:52;;;;;;;57.65;24.42;;;3.20;76.60;;;;;;5075579;28;20451;-89
2022/03/24 02:02:18;;;;;;;159.32;55.15;;;3.20;76.80;;;;;;5075695;28;20430;-89
2022/03/24 02:04:45;;;;;;;140.05;51.67;;;3.20;76.60;;;;;;5075563;28;20028;-89
2022/03/24 02:07:11;;;;;;;106.10;43.95;;;3.10;76.60;;;;;;5075780;28;20024;-89
2022/03/24 02:09:39;;;;;;;57.78;26.90;;;3.10;76.40;;;;;;5075674;28;20031;-89
2022/03/24 02:12:07;;;;;;;56.22;24.08;;;3.10;76.60;;;;;;5075481;28;20034;-89
2022/03/24 02:14:33;;;;;;;43.60;20.23;;;3.20;76.30;;;;;;5058986;28;20360;-89
2022/03/24 02:16:59;;;;;;;99.03;37.40;;;3.10;76.10;;;;;;5075434;28;20021;-89
2022/03/24 02:19:26;;;;;;;180.45;63.78;;;3.10;76.40;;;;;;5075031;28;20112;-89
2022/03/24 02:21:55;;;;;;;76.40;38.13;;;3.10;76.40;;;;;;5075254;28;20051;-89
2022/03/24 02:24:25;;;;;;;41.67;22.20;;;3.10;76.60;;;;;;5075561;28;20032;-89
2022/03/24 02:26:51;;;;;;;34.08;16.85;;;3.10;76.60;;;;;;5075198;28;20049;-89
2022/03/24 02:29:19;;;;;;;30.15;16.08;;;3.10;76.60;;;;;;5075345;28;20028;-89
2022/03/24 02:31:48;;;;;;;30.65;15.52;;;3.10;76.70;;;;;;5075232;28;20024;-89
2022/03/24 02:34:37;;;;;;;43.28;22.25;;;3.00;76.70;;;;;;5074525;28;20025;-89
2022/03/24 02:37:07;;;;;;;28.55;15.35;;;3.00;76.60;;;;;;5075544;28;20021;-89
2022/03/24 02:39:34;;;;;;;28.02;16.35;;;3.00;76.40;;;;;;5074218;28;20032;-89
2022/03/24 02:42:00;;;;;;;29.55;14.90;;;3.00;76.60;;;;;;5075117;28;20112;-89
2022/03/24 02:44:30;;;;;;;30.45;15.13;;;3.00;76.70;;;;;;5074891;28;20059;-89
2022/03/24 02:46:58;;;;;;;32.53;14.45;;;3.00;76.40;;;;;;5075110;28;20074;-89
2022/03/24 02:49:26;;;;;;;23.13;13.63;;;2.90;76.60;;;;;;5074858;28;20021;-89
2022/03/24 02:51:55;;;;;;;29.33;14.95;;;2.90;76.90;;;;;;5074707;28;20482;-89
2022/03/24 02:54:22;;;;;;;30.83;15.18;;;2.90;77.00;;;;;;5074623;28;20060;-89
2022/03/24 02:56:50;;;;;;;26.50;13.85;;;2.90;77.20;;;;;;5074527;28;20050;-89
2022/03/24 02:59:16;;;;;;;24.73;13.00;;;2.90;77.50;;;;;;5073627;28;20032;-89
2022/03/24 03:01:50;;;;;;;32.72;14.82;;;2.80;76.90;;;;;;5074852;28;20017;-88
2022/03/24 03:04:16;;;;;;;29.08;14.70;;;2.80;76.80;;;;;;5074105;28;20428;-89
2022/03/24 03:06:42;;;;;;;33.72;17.02;;;2.80;77.00;;;;;;5074820;28;20058;-89
2022/03/24 03:09:08;;;;;;;26.40;14.10;;;2.80;76.80;;;;;;5074180;28;20116;-89
2022/03/24 03:11:35;;;;;;;32.72;14.75;;;2.90;76.80;;;;;;5074467;28;20016;-89
2022/03/24 03:14:01;;;;;;;42.92;18.88;;;2.90;76.70;;;;;;5074280;28;20027;-89
2022/03/24 03:16:27;;;;;;;49.28;22.50;;;2.90;76.80;;;;;;5073911;28;20024;-89
2022/03/24 03:18:55;;;;;;;33.35;17.48;;;2.90;76.90;;;;;;5074051;28;20016;-89
2022/03/24 03:21:22;;;;;;;65.65;26.27;;;2.80;77.30;;;;;;5074299;28;20049;-89
2022/03/24 03:23:48;;;;;;;62.10;25.17;;;2.80;77.30;;;;;;5075600;28;20086;-89
2022/03/24 03:26:17;;;;;;;62.80;25.65;;;2.80;77.70;;;;;;5074019;28;20024;-89
2022/03/24 03:28:44;;;;;;;68.00;28.00;;;2.70;77.70;;;;;;5074182;28;20479;-89
2022/03/24 03:31:10;;;;;;;42.10;19.98;;;2.70;77.60;;;;;;5073899;28;20031;-89
2022/03/24 03:33:36;;;;;;;29.75;14.23;;;2.70;77.50;;;;;;5073635;28;20025;-89
2022/03/24 03:36:06;;;;;;;33.60;22.60;;;2.70;77.60;;;;;;5074098;28;20074;-89
2022/03/24 03:38:33;;;;;;;41.88;27.15;;;2.70;77.50;;;;;;5073872;28;20020;-89
2022/03/24 03:41:02;;;;;;;34.50;20.52;;;2.70;77.80;;;;;;5073906;28;20024;-89
2022/03/24 03:43:28;;;;;;;31.15;18.05;;;2.70;77.70;;;;;;5073789;28;20111;-89
2022/03/24 03:45:55;;;;;;;28.17;14.27;;;2.70;77.80;;;;;;5073619;28;20112;-89
2022/03/24 03:48:21;;;;;;;22.33;13.35;;;2.70;77.90;;;;;;5073926;28;20035;-89
2022/03/24 03:50:48;;;;;;;27.48;13.10;;;2.70;77.70;;;;;;5073537;28;20025;-89
2022/03/24 03:53:14;;;;;;;23.75;13.02;;;2.70;77.70;;;;;;5073626;28;20024;-89
2022/03/24 03:55:40;;;;;;;21.77;12.50;;;2.70;77.70;;;;;;5073511;28;20573;-89
2022/03/24 03:58:07;;;;;;;24.30;12.85;;;2.70;77.50;;;;;;5073375;28;20029;-89
2022/03/24 04:00:52;;;;;;;27.38;14.43;;;2.70;77.60;;;;;;5073236;28;20032;-89
2022/03/24 04:03:23;;;;;;;26.35;13.35;;;2.70;77.20;;;;;;5073938;28;20031;-89
2022/03/24 04:05:53;;;;;;;28.52;13.38;;;2.70;77.30;;;;;;5073457;28;20033;-89
2022/03/24 04:08:20;;;;;;;26.77;12.77;;;2.70;77.30;;;;;;5067215;28;20035;-89
2022/03/24 04:10:46;;;;;;;25.83;14.43;;;2.70;77.70;;;;;;5073556;28;20249;-89
2022/03/24 04:13:13;;;;;;;24.50;13.02;;;2.70;77.80;;;;;;5073244;28;20497;-89
2022/03/24 04:15:39;;;;;;;25.35;14.30;;;2.70;78.00;;;;;;5073640;28;20099;-89
2022/03/24 04:18:06;;;;;;;29.85;15.18;;;2.70;78.10;;;;;;5073280;28;20037;-89
2022/03/24 04:20:34;;;;;;;29.70;14.57;;;2.70;78.30;;;;;;5073426;28;20062;-89
2022/03/24 04:23:01;;;;;;;26.15;14.98;;;2.70;78.20;;;;;;5073380;28;20028;-89
2022/03/24 04:25:27;;;;;;;28.75;15.13;;;2.70;78.30;;;;;;5074281;28;20537;-89
2022/03/24 04:27:54;;;;;;;32.30;15.25;;;2.70;78.50;;;;;;5072930;28;20056;-89
2022/03/24 04:30:21;;;;;;;38.85;15.30;;;2.70;78.50;;;;;;5075076;28;20494;-89
2022/03/24 04:32:48;;;;;;;35.80;16.65;;;2.70;78.60;;;;;;5073582;28;20433;-89
2022/03/24 04:35:15;;;;;;;38.33;15.15;;;2.70;78.50;;;;;;5073611;28;20024;-89
2022/03/24 04:37:42;;;;;;;30.25;14.43;;;2.80;78.30;;;;;;5072457;28;20024;-89
2022/03/24 04:40:10;;;;;;;29.27;13.93;;;2.80;78.00;;;;;;5073037;28;20075;-89
2022/03/24 04:42:39;;;;;;;25.63;12.43;;;2.80;78.10;;;;;;5073781;28;20083;-89
2022/03/24 04:45:09;;;;;;;26.23;13.60;;;2.90;77.90;;;;;;5073289;28;20479;-89
2022/03/24 04:47:35;;;;;;;26.20;13.65;;;3.00;77.60;;;;;;5073299;28;20056;-89
2022/03/24 04:50:02;;;;;;;28.52;12.50;;;3.00;77.70;;;;;;5072876;28;20079;-89
2022/03/24 04:52:28;;;;;;;26.48;12.25;;;3.00;77.50;;;;;;5073122;28;20112;-89
2022/03/24 04:54:54;;;;;;;21.70;12.27;;;3.10;77.40;;;;;;5073777;28;20055;-89
2022/03/24 04:57:20;;;;;;;26.98;13.05;;;3.20;77.00;;;;;;5072772;28;20035;-89
2022/03/24 04:59:45;;;;;;;32.08;13.40;;;3.30;77.30;;;;;;5072893;28;20383;-89
2022/03/24 05:02:15;;;;;;;27.13;13.00;;;3.30;77.10;;;;;;5072645;28;20097;-89
2022/03/24 05:04:45;;;;;;;27.80;12.88;;;3.40;77.20;;;;;;5072884;28;20029;-89
2022/03/24 05:07:12;;;;;;;22.60;12.48;;;3.40;77.00;;;;;;5072722;28;20036;-89
2022/03/24 05:09:38;;;;;;;23.92;12.35;;;3.50;76.60;;;;;;5072748;28;20032;-89
2022/03/24 05:12:05;;;;;;;23.98;13.43;;;3.60;76.80;;;;;;5072352;28;20487;-89
2022/03/24 05:14:31;;;;;;;24.20;11.73;;;3.60;76.90;;;;;;5072734;28;20103;-89
2022/03/24 05:16:57;;;;;;;26.52;13.15;;;3.70;76.90;;;;;;5072652;28;20021;-89
2022/03/24 05:19:23;;;;;;;35.33;15.48;;;3.80;76.70;;;;;;5072712;28;20537;-89
2022/03/24 05:21:50;;;;;;;31.95;15.13;;;3.90;76.40;;;;;;5075266;28;20052;-89
2022/03/24 05:24:16;;;;;;;30.85;14.38;;;4.00;76.30;;;;;;5076320;28;20111;-89
2022/03/24 05:26:42;;;;;;;28.23;14.43;;;4.00;76.20;;;;;;5076323;28;20497;-89
2022/03/24 05:29:09;;;;;;;23.83;12.93;;;4.10;76.20;;;;;;5076447;28;20025;-89
2022/03/24 05:31:34;;;;;;;30.10;13.65;;;4.20;76.30;;;;;;5076383;28;20020;-89
2022/03/24 05:34:00;;;;;;;28.20;13.70;;;4.20;76.10;;;;;;5076117;28;20066;-89
2022/03/24 05:36:25;;;;;;;24.40;13.05;;;4.30;75.90;;;;;;5076160;28;20040;-90
2022/03/24 05:38:52;;;;;;;26.40;13.05;;;4.40;75.90;;;;;;5075868;28;20023;-89
2022/03/24 05:41:18;;;;;;;24.95;12.73;;;4.40;76.00;;;;;;5075965;28;20028;-90
2022/03/24 05:46:41;;;;;;;27.02;13.32;;;4.60;76.20;;;;;;5077466;28;20073;-89
2022/03/24 05:49:09;;;;;;;23.38;14.10;;;4.80;76.60;;;;;;5075951;28;20467;-89
2022/03/24 05:51:36;;;;;;;23.15;13.20;;;4.90;76.10;;;;;;5075729;28;20032;-89
2022/03/24 05:54:03;;;;;;;26.55;13.25;;;4.90;76.00;;;;;;5075701;28;20052;-89
2022/03/24 05:56:29;;;;;;;28.42;13.75;;;5.00;76.20;;;;;;5076011;28;20100;-89
2022/03/24 05:58:56;;;;;;;29.20;13.45;;;5.10;76.30;;;;;;5075765;28;20016;-89
2022/03/24 06:01:24;;;;;;;37.08;14.95;;;5.20;76.10;;;;;;5075970;28;20471;-90
2022/03/24 06:03:51;;;;;;;29.42;14.43;;;5.30;75.90;;;;;;5075968;28;20463;-89
2022/03/24 06:06:18;;;;;;;26.33;13.75;;;5.30;75.70;;;;;;5075058;28;20174;-90
2022/03/24 06:08:44;;;;;;;28.63;14.20;;;5.40;75.70;;;;;;5077074;28;20028;-90
2022/03/24 06:11:13;;;;;;;24.55;14.45;;;5.50;75.70;;;;;;5075770;28;20383;-90
2022/03/24 06:13:42;;;;;;;34.20;16.35;;;5.60;75.50;;;;;;5075465;28;20025;-90
2022/03/24 06:16:08;;;;;;;29.20;14.48;;;5.60;74.90;;;;;;5075374;28;20108;-90
2022/03/24 06:18:36;;;;;;;29.90;15.82;;;5.70;75.30;;;;;;5075651;28;20036;-90
2022/03/24 06:21:05;;;;;;;28.67;15.40;;;5.80;75.30;;;;;;5075259;28;20114;-91
2022/03/24 06:23:31;;;;;;;29.67;15.10;;;5.80;75.30;;;;;;5075243;28;20449;-90
2022/03/24 06:25:58;;;;;;;27.90;15.05;;;5.90;75.10;;;;;;5075387;28;20028;-90
2022/03/24 06:28:24;;;;;;;32.15;16.60;;;5.90;75.50;;;;;;5075532;28;20114;-90
2022/03/24 06:30:51;;;;;;;29.98;15.30;;;6.00;74.90;;;;;;5075097;28;20029;-90
2022/03/24 06:33:17;;;;;;;28.05;15.23;;;6.10;75.20;;;;;;5074862;28;20383;-90
2022/03/24 06:35:47;;;;;;;29.55;15.90;;;6.20;74.80;;;;;;5075196;28;20020;-89
2022/03/24 06:38:14;;;;;;;27.25;16.08;;;6.20;74.60;;;;;;5075224;28;20119;-90
2022/03/24 06:40:40;;;;;;;30.95;16.23;;;6.30;74.70;;;;;;5074965;28;20032;-90
2022/03/24 06:43:08;;;;;;;29.33;15.25;;;6.40;74.70;;;;;;5074953;28;20028;-90
2022/03/24 06:45:34;;;;;;;27.20;15.90;;;6.50;74.70;;;;;;5076472;28;20505;-90
2022/03/24 06:48:02;;;;;;;31.02;16.67;;;6.60;74.70;;;;;;5074583;28;20502;-90
2022/03/24 06:50:28;;;;;;;31.90;16.67;;;6.60;74.40;;;;;;5074836;28;20132;-90
2022/03/24 06:52:54;;;;;;;31.20;17.00;;;6.70;74.50;;;;;;5074819;28;20534;-90
2022/03/24 06:55:20;;;;;;;31.23;17.75;;;6.80;74.70;;;;;;5074614;28;20108;-90
2022/03/24 06:57:46;;;;;;;39.60;18.60;;;6.90;74.80;;;;;;5074869;28;20032;-91
2022/03/24 07:00:14;;;;;;;41.45;19.95;;;7.00;74.60;;;;;;5074300;28;20025;-90
2022/03/24 07:02:43;;;;;;;35.08;18.92;;;7.00;74.40;;;;;;5074718;28;20029;-91
2022/03/24 07:05:11;;;;;;;35.10;19.65;;;7.10;74.70;;;;;;5074728;28;20028;-91
2022/03/24 07:07:37;;;;;;;39.28;19.48;;;7.20;74.90;;;;;;5074456;28;20398;-90
2022/03/24 07:10:03;;;;;;;39.13;19.20;;;7.30;74.90;;;;;;5074428;28;20025;-91
2022/03/24 07:12:29;;;;;;;36.28;19.23;;;7.40;75.00;;;;;;5073653;28;20027;-90
2022/03/24 07:14:54;;;;;;;34.60;19.30;;;7.50;75.00;;;;;;5074339;28;20025;-90
2022/03/24 07:17:21;;;;;;;36.78;19.38;;;7.60;75.00;;;;;;5074313;28;20029;-91
2022/03/24 07:19:47;;;;;;;28.35;17.30;;;7.60;75.20;;;;;;5074778;28;20027;-90
2022/03/24 07:22:13;;;;;;;31.17;18.08;;;7.70;75.20;;;;;;5074356;28;20048;-90
2022/03/24 07:24:40;;;;;;;29.25;16.58;;;7.90;74.90;;;;;;5074430;28;20043;-90
2022/03/24 07:27:06;;;;;;;25.80;15.35;;;8.10;74.20;;;;;;5073853;28;20052;-90
2022/03/24 07:29:32;;;;;;;25.88;15.48;;;8.30;73.70;;;;;;5073197;28;20127;-90
2022/03/24 07:31:59;;;;;;;29.75;17.05;;;8.40;73.00;;;;;;5074196;28;20107;-89
2022/03/24 07:34:27;;;;;;;28.25;17.45;;;8.60;72.50;;;;;;5074069;28;20059;-89
2022/03/24 07:36:53;;;;;;;30.63;17.77;;;8.70;72.20;;;;;;5073909;28;20042;-89
2022/03/24 07:39:19;;;;;;;40.75;21.25;;;8.90;71.20;;;;;;5073887;28;20021;-89
2022/03/24 07:41:45;;;;;;;40.55;19.70;;;9.10;71.30;;;;;;5073865;28;20073;-89
2022/03/24 07:44:10;;;;;;;35.58;19.02;;;9.10;71.40;;;;;;5072894;28;20474;-89
2022/03/24 07:46:37;;;;;;;37.22;20.05;;;9.10;71.40;;;;;;5073531;28;20592;-89
2022/03/24 07:49:04;;;;;;;39.60;20.30;;;9.20;71.70;;;;;;5074057;28;20097;-89
2022/03/24 07:51:34;;;;;;;43.50;22.17;;;9.20;71.50;;;;;;5073900;28;20027;-89
2022/03/24 07:54:04;;;;;;;36.28;21.58;;;9.20;71.50;;;;;;5073634;28;20585;-89
2022/03/24 07:56:31;;;;;;;32.95;20.98;;;9.30;71.30;;;;;;5073459;28;20086;-89
2022/03/24 07:58:58;;;;;;;39.92;22.33;;;9.30;71.10;;;;;;5073184;28;20111;-90
2022/03/24 08:01:31;;;;;;;47.45;22.42;;;9.40;71.30;;;;;;5073616;28;20021;-90
2022/03/24 08:03:59;;;;;;;48.40;23.10;;;9.50;70.80;;;;;;5073481;28;20035;-90
2022/03/24 08:06:25;;;;;;;47.30;24.98;;;9.60;70.20;;;;;;5073497;28;20035;-91
2022/03/24 08:08:54;;;;;;;41.75;23.30;;;9.60;69.80;;;;;;5074248;28;20094;-95
2022/03/24 08:11:19;;;;;;;48.80;23.70;;;9.60;69.50;;;;;;5057118;28;20037;-92
2022/03/24 08:13:52;;;;;;;39.47;23.85;;;9.60;69.60;;;;;;5073288;28;20376;-91
2022/03/24 08:16:23;;;;;;;49.22;27.88;;;9.60;70.30;;;;;;5073886;28;20475;-90
2022/03/24 08:18:48;;;;;;;207.95;115.13;;;9.80;70.00;;;;;;5073647;28;20086;-90
2022/03/24 08:21:15;;;;;;;88.60;47.90;;;9.90;69.90;;;;;;5072818;28;20479;-88
2022/03/24 08:23:41;;;;;;;82.40;42.83;;;9.90;69.40;;;;;;5073532;28;20085;-90
2022/03/24 08:26:07;;;;;;;57.65;32.90;;;10.00;69.60;;;;;;5073277;28;20390;-86
2022/03/24 08:28:33;;;;;;;75.35;37.90;;;10.10;68.90;;;;;;5073235;28;20496;-89
2022/03/24 08:30:59;;;;;;;62.20;33.78;;;10.20;68.40;;;;;;5073080;28;20059;-90
2022/03/24 08:33:25;;;;;;;58.45;31.83;;;10.20;68.60;;;;;;5072836;28;20028;-90
2022/03/24 08:35:52;;;;;;;61.05;32.85;;;10.30;67.80;;;;;;5073094;28;20025;-89
2022/03/24 08:38:18;;;;;;;58.20;32.92;;;10.20;67.70;;;;;;5072856;28;20028;-91
2022/03/24 08:40:45;;;;;;;54.25;32.92;;;10.20;68.10;;;;;;5072782;28;20368;-88
2022/03/24 08:43:12;;;;;;;55.45;31.83;;;10.20;68.20;;;;;;5073075;28;20494;-88
2022/03/24 08:45:38;;;;;;;57.10;32.78;;;10.20;68.30;;;;;;5072760;28;20029;-89
2022/03/24 08:48:05;;;;;;;56.92;31.90;;;10.10;68.10;;;;;;5073118;28;20048;-88
2022/03/24 08:50:32;;;;;;;59.65;32.75;;;10.20;68.20;;;;;;5072926;28;20024;-88
2022/03/24 08:52:59;;;;;;;53.63;31.42;;;10.20;67.70;;;;;;5073001;28;20031;-88
2022/03/24 08:55:25;;;;;;;53.65;32.67;;;10.10;68.20;;;;;;5075660;28;20033;-88
2022/03/24 08:57:53;;;;;;;59.80;34.22;;;10.10;68.20;;;;;;5076993;28;20016;-89
2022/03/24 09:00:18;;;;;;;58.60;33.45;;;10.10;68.40;;;;;;5059993;28;20115;-89
2022/03/24 09:02:49;;;;;;;58.95;33.17;;;10.10;68.70;;;;;;5076686;28;20075;-89
2022/03/24 09:05:16;;;;;;;55.20;32.47;;;10.20;69.00;;;;;;5059850;28;20067;-90
2022/03/24 09:07:42;;;;;;;59.97;32.67;;;10.20;69.40;;;;;;5076823;28;20063;-89
2022/03/24 09:10:10;;;;;;;59.75;34.88;;;10.30;69.30;;;;;;5077023;28;20028;-88
2022/03/24 15:47:57;;;;;;;29.42;15.10;;;8.00;64.60;;;;;;5091737;27;20375;-92
2022/03/24 15:50:23;;;;;;;27.95;15.77;;;7.80;65.40;;;;;;5090936;28;20086;-88
2022/03/24 15:52:50;;;;;;;32.95;15.32;;;7.70;65.60;;;;;;5090819;28;20123;-90
2022/03/24 15:55:17;;;;;;;24.33;14.27;;;7.60;65.20;;;;;;5090572;28;20020;-89
2022/03/24 15:57:48;;;;;;;22.15;14.02;;;7.60;64.70;;;;;;5090533;28;20025;-88
2022/03/24 16:00:19;;;;;;;26.52;13.57;;;7.60;64.80;;;;;;5090791;28;20077;-90
2022/03/24 16:02:45;;;;;;;28.27;14.27;;;7.50;64.70;;;;;;5090593;28;20028;-90
2022/03/24 16:05:12;;;;;;;22.00;13.00;;;7.50;64.70;;;;;;5089873;28;20050;-92
2022/03/24 16:07:38;;;;;;;25.02;14.98;;;7.40;65.20;;;;;;5090030;28;20032;-90
2022/03/24 16:10:07;;;;;;;21.73;13.77;;;7.40;65.40;;;;;;5090556;28;20024;-91
2022/03/24 16:12:33;;;;;;;21.27;13.77;;;7.30;65.70;;;;;;5090418;28;20048;-90
2022/03/24 16:15:00;;;;;;;22.52;12.98;;;7.20;66.00;;;;;;5090429;28;20028;-90
2022/03/24 16:17:26;;;;;;;25.38;14.02;;;7.20;66.20;;;;;;5090244;28;20434;-90
2022/03/24 16:19:52;;;;;;;23.98;13.63;;;7.20;66.20;;;;;;5090325;28;20024;-90
2022/03/24 16:22:18;;;;;;;25.10;14.02;;;7.10;66.30;;;;;;5090119;28;20386;-90
2022/03/24 16:24:43;;;;;;;21.02;14.25;;;7.10;66.50;;;;;;5090302;28;20029;-91
2022/03/24 16:27:09;;;;;;;21.25;14.98;;;7.00;66.70;;;;;;5090198;28;20043;-90
2022/03/24 16:29:35;;;;;;;26.17;14.70;;;6.90;66.90;;;;;;5090203;28;20103;-89
2022/03/24 16:32:02;;;;;;;23.15;15.98;;;6.90;67.10;;;;;;5090003;28;20031;-90
2022/03/24 16:34:28;;;;;;;25.20;16.48;;;6.80;67.20;;;;;;5090085;28;20051;-88
2022/03/24 16:36:54;;;;;;;23.77;16.48;;;6.80;67.20;;;;;;5089901;28;20020;-90
2022/03/24 16:39:20;;;;;;;23.98;16.75;;;6.70;67.30;;;;;;5090128;28;20050;-90
2022/03/24 16:41:46;;;;;;;30.65;16.90;;;6.70;67.20;;;;;;5089592;28;20050;-88
2022/03/24 16:44:12;;;;;;;24.58;16.60;;;6.60;67.30;;;;;;5089530;28;20025;-89
2022/03/24 16:46:38;;;;;;;27.02;16.38;;;6.60;67.50;;;;;;5089145;28;20453;-90
2022/03/24 16:49:05;;;;;;;26.83;17.08;;;6.60;67.60;;;;;;5090888;28;20024;-89
2022/03/24 16:51:31;;;;;;;25.50;15.93;;;6.50;67.50;;;;;;5090363;28;20111;-89
2022/03/24 16:53:57;;;;;;;26.63;16.15;;;6.50;67.70;;;;;;5089585;28;20031;-90
2022/03/24 16:56:23;;;;;;;24.23;15.13;;;6.40;67.80;;;;;;5089449;28;20020;-90
2022/03/24 16:58:48;;;;;;;27.80;16.35;;;6.40;68.00;;;;;;5078792;28;20056;-91
2022/03/24 17:01:14;;;;;;;22.77;15.30;;;6.40;68.00;;;;;;5076530;28;20509;-89
2022/03/24 17:03:45;;;;;;;23.67;15.40;;;6.30;68.10;;;;;;5076069;28;20036;-90
2022/03/24 17:06:11;;;;;;;24.42;15.32;;;6.30;68.20;;;;;;5075661;28;20055;-88
2022/03/24 17:08:37;;;;;;;22.73;15.63;;;6.20;68.00;;;;;;5075825;28;20032;-89
2022/03/24 17:11:03;;;;;;;23.45;15.02;;;6.20;68.10;;;;;;5076256;28;20020;-91
2022/03/24 17:13:28;;;;;;;21.60;14.75;;;6.10;68.20;;;;;;5075990;28;20103;-90
2022/03/24 17:15:54;;;;;;;20.77;14.80;;;6.10;68.40;;;;;;5075857;28;20413;-91
2022/03/24 17:18:20;;;;;;;22.23;15.30;;;6.00;68.40;;;;;;5075943;28;20052;-90
2022/03/24 17:20:46;;;;;;;22.98;16.33;;;6.00;68.60;;;;;;5075567;28;20489;-90
2022/03/24 17:23:12;;;;;;;25.27;14.93;;;6.00;68.80;;;;;;5075043;28;20383;-90
2022/03/24 17:25:39;;;;;;;28.27;16.58;;;5.90;69.00;;;;;;5075753;28;20055;-89
2022/03/24 17:28:05;;;;;;;26.42;16.13;;;5.90;69.20;;;;;;5075531;28;20051;-90
2022/03/24 17:30:39;;;;;;;24.30;16.08;;;5.80;68.80;;;;;;5091837;27;20440;-89
2022/03/24 17:33:05;;;;;;;28.00;16.05;;;5.80;69.50;;;;;;5090651;28;20028;-90
2022/03/24 17:35:31;;;;;;;22.52;15.32;;;5.80;69.30;;;;;;5090640;28;20367;-90
2022/03/24 17:37:57;;;;;;;19.67;14.40;;;5.70;69.30;;;;;;5090564;28;20470;-91
2022/03/24 17:40:25;;;;;;;22.10;14.73;;;5.70;69.30;;;;;;5090726;28;20130;-91
2022/03/24 17:42:54;;;;;;;21.00;14.23;;;5.60;69.00;;;;;;5090672;28;20082;-91
2022/03/24 17:45:20;;;;;;;24.73;14.32;;;5.60;69.00;;;;;;5090584;28;20084;-91
2022/03/24 17:47:48;;;;;;;22.52;14.27;;;5.60;69.10;;;;;;5090469;28;20058;-91
2022/03/24 17:50:19;;;;;;;19.08;13.95;;;5.50;69.60;;;;;;5090430;28;20388;-90
2022/03/24 17:52:45;;;;;;;25.75;15.10;;;5.50;69.10;;;;;;5090534;28;20044;-91
2022/03/24 17:55:12;;;;;;;27.42;15.40;;;5.40;69.00;;;;;;5090129;28;20017;-90
2022/03/24 17:57:39;;;;;;;27.30;14.40;;;5.40;69.00;;;;;;5089804;28;20025;-90
2022/03/24 18:00:08;;;;;;;62.28;32.80;;;5.40;69.00;;;;;;5089766;28;20063;-91
2022/03/24 18:02:35;;;;;;;59.17;30.75;;;5.30;69.10;;;;;;5089818;28;20020;-90
2022/03/24 18:05:00;;;;;;;39.30;22.80;;;5.30;69.20;;;;;;5089702;28;20024;-90
2022/03/24 18:07:26;;;;;;;37.05;20.35;;;5.20;69.10;;;;;;5090077;28;20031;-90
2022/03/24 18:09:52;;;;;;;32.25;19.45;;;5.20;69.20;;;;;;5089470;28;20024;-90
2022/03/24 18:12:20;;;;;;;35.35;20.00;;;5.10;69.20;;;;;;5089831;28;20028;-91
2022/03/24 18:14:45;;;;;;;32.40;19.88;;;5.10;69.20;;;;;;5089560;28;20020;-91
2022/03/24 18:17:11;;;;;;;30.90;20.55;;;5.10;69.40;;;;;;5089377;28;20024;-90
2022/03/24 18:19:37;;;;;;;27.90;19.75;;;5.00;69.40;;;;;;5089707;28;20024;-90
2022/03/24 18:22:03;;;;;;;30.75;19.33;;;5.00;69.60;;;;;;5089358;28;20036;-91
2022/03/24 18:24:29;;;;;;;27.77;19.27;;;4.90;69.60;;;;;;5086544;28;20563;-90
2022/03/24 18:26:56;;;;;;;32.88;20.30;;;4.90;69.60;;;;;;5089543;28;20032;-90
2022/03/24 18:29:22;;;;;;;27.30;18.33;;;4.90;69.60;;;;;;5088957;28;20040;-91
2022/03/24 18:31:52;;;;;;;28.02;19.35;;;4.80;69.60;;;;;;5087016;28;20017;-90
2022/03/24 18:34:20;;;;;;;30.17;19.00;;;4.80;69.80;;;;;;5089088;28;20019;-90
2022/03/24 18:36:46;;;;;;;30.02;20.30;;;4.80;69.90;;;;;;5089157;28;20035;-91
2022/03/24 18:39:12;;;;;;;36.33;21.48;;;4.70;70.00;;;;;;5089076;28;20028;-90
2022/03/24 18:41:38;;;;;;;33.05;22.63;;;4.70;70.00;;;;;;5077922;28;20521;-90
2022/03/24 18:44:06;;;;;;;41.47;22.88;;;4.70;70.30;;;;;;5075358;28;20111;-90
2022/03/24 18:46:33;;;;;;;40.63;23.55;;;4.60;70.60;;;;;;5075778;28;20039;-90
2022/03/24 18:48:59;;;;;;;40.88;22.55;;;4.50;70.80;;;;;;5075651;28;20040;-90
2022/03/24 18:51:25;;;;;;;45.97;23.80;;;4.40;70.90;;;;;;5076496;28;20021;-90
2022/03/24 18:53:51;;;;;;;46.28;23.95;;;4.30;71.20;;;;;;5075430;28;20028;-90
2022/03/24 18:56:16;;;;;;;45.75;23.63;;;4.20;71.50;;;;;;5075890;28;20078;-91
2022/03/24 18:58:42;;;;;;;43.53;23.90;;;4.10;71.70;;;;;;5075576;28;20082;-90
2022/03/24 19:01:09;;;;;;;45.20;24.25;;;4.00;72.00;;;;;;5075860;28;20467;-90
2022/03/24 19:03:35;;;;;;;43.05;23.75;;;3.90;72.00;;;;;;5075658;28;20032;-90
2022/03/24 19:06:01;;;;;;;44.40;24.00;;;3.80;73.10;;;;;;5075544;28;20032;-90
2022/03/24 19:08:27;;;;;;;42.25;23.80;;;3.80;72.90;;;;;;5075843;28;20044;-91
2022/03/24 19:10:53;;;;;;;38.90;23.65;;;3.70;72.90;;;;;;5075527;28;20052;-90